sensor_id;sensor_type;location;lat;lon;timestamp;temperature;humidity
32895;DHT22;19251;49.484;8.260;2022-08-21T00:02:54;20.50;17.80
32895;DHT22;19251;49.484;8.260;2022-08-21T00:07:58;20.30;17.90
32895;DHT22;19251;49.484;8.260;2022-08-21T00:13:01;20.00;17.50
32895;DHT22;19251;49.484;8.260;2022-08-21T00:18:06;19.90;18.10
32895;DHT22;19251;49.484;8.260;2022-08-21T00:23:08;20.10;18.60
32895;DHT22;19251;49.484;8.260;2022-08-21T00:28:12;19.90;18.60
32895;DHT22;19251;49.484;8.260;2022-08-21T00:33:14;19.80;18.80
32895;DHT22;19251;49.484;8.260;2022-08-21T00:38:16;19.70;18.90
32895;DHT22;19251;49.484;8.260;2022-08-21T00:43:22;19.70;19.90
32895;DHT22;19251;49.484;8.260;2022-08-21T00:48:26;19.70;19.40
32895;DHT22;19251;49.484;8.260;2022-08-21T00:53:29;19.50;19.40
32895;DHT22;19251;49.484;8.260;2022-08-21T00:58:33;19.80;19.80
32895;DHT22;19251;49.484;8.260;2022-08-21T01:03:39;19.50;19.60
32895;DHT22;19251;49.484;8.260;2022-08-21T01:08:46;19.40;19.60
32895;DHT22;19251;49.484;8.260;2022-08-21T01:13:49;19.40;19.80
32895;DHT22;19251;49.484;8.260;2022-08-21T01:18:53;19.40;20.00
32895;DHT22;19251;49.484;8.260;2022-08-21T01:23:57;19.10;20.10
32895;DHT22;19251;49.484;8.260;2022-08-21T01:34:10;19.10;20.40
32895;DHT22;19251;49.484;8.260;2022-08-21T01:39:13;19.20;20.80
32895;DHT22;19251;49.484;8.260;2022-08-21T01:44:21;19.10;20.80
32895;DHT22;19251;49.484;8.260;2022-08-21T01:49:23;19.10;20.80
32895;DHT22;19251;49.484;8.260;2022-08-21T01:54:25;19.30;21.00
32895;DHT22;19251;49.484;8.260;2022-08-21T01:59:31;18.30;20.20
32895;DHT22;19251;49.484;8.260;2022-08-21T02:04:35;19.10;20.80
32895;DHT22;19251;49.484;8.260;2022-08-21T02:09:37;18.80;20.70
32895;DHT22;19251;49.484;8.260;2022-08-21T02:14:41;18.80;21.00
32895;DHT22;19251;49.484;8.260;2022-08-21T02:19:43;18.90;21.40
32895;DHT22;19251;49.484;8.260;2022-08-21T02:24:46;18.40;21.20
32895;DHT22;19251;49.484;8.260;2022-08-21T02:29:57;18.50;21.30
32895;DHT22;19251;49.484;8.260;2022-08-21T02:34:59;18.30;21.60
32895;DHT22;19251;49.484;8.260;2022-08-21T02:40:03;18.50;21.80
32895;DHT22;19251;49.484;8.260;2022-08-21T02:45:06;18.50;21.80
32895;DHT22;19251;49.484;8.260;2022-08-21T02:50:08;18.30;21.70
32895;DHT22;19251;49.484;8.260;2022-08-21T02:55:10;18.30;21.80
32895;DHT22;19251;49.484;8.260;2022-08-21T03:00:14;18.20;22.00
32895;DHT22;19251;49.484;8.260;2022-08-21T03:05:17;18.20;22.20
32895;DHT22;19251;49.484;8.260;2022-08-21T03:10:21;18.20;22.40
32895;DHT22;19251;49.484;8.260;2022-08-21T03:15:23;18.10;22.50
32895;DHT22;19251;49.484;8.260;2022-08-21T03:20:28;18.20;22.30
32895;DHT22;19251;49.484;8.260;2022-08-21T03:25:30;18.00;22.30
32895;DHT22;19251;49.484;8.260;2022-08-21T03:30:43;18.00;22.40
32895;DHT22;19251;49.484;8.260;2022-08-21T03:35:54;17.90;22.50
32895;DHT22;19251;49.484;8.260;2022-08-21T03:40:59;18.00;22.80
32895;DHT22;19251;49.484;8.260;2022-08-21T03:46:03;17.50;22.50
32895;DHT22;19251;49.484;8.260;2022-08-21T03:51:06;17.70;22.80
32895;DHT22;19251;49.484;8.260;2022-08-21T03:56:08;17.90;23.10
32895;DHT22;19251;49.484;8.260;2022-08-21T04:01:14;17.80;23.00
32895;DHT22;19251;49.484;8.260;2022-08-21T04:06:16;17.50;23.00
32895;DHT22;19251;49.484;8.260;2022-08-21T04:11:18;17.50;23.20
32895;DHT22;19251;49.484;8.260;2022-08-21T04:16:21;17.60;23.50
32895;DHT22;19251;49.484;8.260;2022-08-21T04:21:23;17.20;23.30
32895;DHT22;19251;49.484;8.260;2022-08-21T04:26:26;17.70;23.90
32895;DHT22;19251;49.484;8.260;2022-08-21T04:31:29;17.40;23.70
32895;DHT22;19251;49.484;8.260;2022-08-21T04:36:32;17.10;23.60
32895;DHT22;19251;49.484;8.260;2022-08-21T04:41:35;17.40;24.00
32895;DHT22;19251;49.484;8.260;2022-08-21T04:46:38;17.40;24.10
32895;DHT22;19251;49.484;8.260;2022-08-21T04:51:40;17.40;23.90
32895;DHT22;19251;49.484;8.260;2022-08-21T04:56:49;17.40;24.10
32895;DHT22;19251;49.484;8.260;2022-08-21T05:01:53;17.60;24.30
32895;DHT22;19251;49.484;8.260;2022-08-21T05:07:02;17.40;24.30
32895;DHT22;19251;49.484;8.260;2022-08-21T05:12:04;17.30;24.60
32895;DHT22;19251;49.484;8.260;2022-08-21T05:17:07;17.50;24.70
32895;DHT22;19251;49.484;8.260;2022-08-21T05:22:10;17.50;24.80
32895;DHT22;19251;49.484;8.260;2022-08-21T05:27:12;17.60;24.90
32895;DHT22;19251;49.484;8.260;2022-08-21T05:32:18;17.60;24.80
32895;DHT22;19251;49.484;8.260;2022-08-21T05:37:21;17.60;24.80
32895;DHT22;19251;49.484;8.260;2022-08-21T05:42:23;17.60;24.80
32895;DHT22;19251;49.484;8.260;2022-08-21T05:47:25;17.80;24.90
32895;DHT22;19251;49.484;8.260;2022-08-21T05:52:28;17.90;25.00
32895;DHT22;19251;49.484;8.260;2022-08-21T05:57:30;17.70;24.80
32895;DHT22;19251;49.484;8.260;2022-08-21T06:02:32;18.20;25.90
32895;DHT22;19251;49.484;8.260;2022-08-21T06:07:35;18.30;25.10
32895;DHT22;19251;49.484;8.260;2022-08-21T06:12:37;18.50;25.20
32895;DHT22;19251;49.484;8.260;2022-08-21T06:17:43;18.70;25.40
32895;DHT22;19251;49.484;8.260;2022-08-21T06:22:45;19.00;25.70
32895;DHT22;19251;49.484;8.260;2022-08-21T06:27:47;19.50;26.40
32895;DHT22;19251;49.484;8.260;2022-08-21T06:32:50;20.00;26.10
32895;DHT22;19251;49.484;8.260;2022-08-21T06:37:52;20.70;25.40
32895;DHT22;19251;49.484;8.260;2022-08-21T06:42:54;21.30;24.40
32895;DHT22;19251;49.484;8.260;2022-08-21T06:47:56;21.40;23.60
32895;DHT22;19251;49.484;8.260;2022-08-21T06:53:12;21.60;23.10
32895;DHT22;19251;49.484;8.260;2022-08-21T06:58:15;21.80;22.90
32895;DHT22;19251;49.484;8.260;2022-08-21T07:03:27;21.90;22.70
32895;DHT22;19251;49.484;8.260;2022-08-21T07:08:30;22.20;22.00
32895;DHT22;19251;49.484;8.260;2022-08-21T07:13:32;22.20;21.60
32895;DHT22;19251;49.484;8.260;2022-08-21T07:18:35;22.50;21.30
32895;DHT22;19251;49.484;8.260;2022-08-21T07:23:49;22.70;21.10
32895;DHT22;19251;49.484;8.260;2022-08-21T07:28:51;22.90;20.60
32895;DHT22;19251;49.484;8.260;2022-08-21T07:33:55;23.10;20.50
32895;DHT22;19251;49.484;8.260;2022-08-21T07:38:57;23.20;19.80
32895;DHT22;19251;49.484;8.260;2022-08-21T07:43:59;23.40;19.30
32895;DHT22;19251;49.484;8.260;2022-08-21T07:49:02;23.50;19.00
32895;DHT22;19251;49.484;8.260;2022-08-21T07:54:04;23.80;18.90
32895;DHT22;19251;49.484;8.260;2022-08-21T07:59:06;24.00;18.60
32895;DHT22;19251;49.484;8.260;2022-08-21T08:04:08;24.10;18.10
32895;DHT22;19251;49.484;8.260;2022-08-21T08:09:11;24.30;17.40
32895;DHT22;19251;49.484;8.260;2022-08-21T08:14:13;24.50;16.80
32895;DHT22;19251;49.484;8.260;2022-08-21T08:19:17;24.50;16.60
32895;DHT22;19251;49.484;8.260;2022-08-21T08:24:19;24.90;16.70
32895;DHT22;19251;49.484;8.260;2022-08-21T08:29:21;25.30;16.40
32895;DHT22;19251;49.484;8.260;2022-08-21T08:34:25;25.30;15.90
32895;DHT22;19251;49.484;8.260;2022-08-21T08:39:28;25.30;15.50
32895;DHT22;19251;49.484;8.260;2022-08-21T08:44:31;25.70;14.70
32895;DHT22;19251;49.484;8.260;2022-08-21T08:49:37;25.90;14.20
32895;DHT22;19251;49.484;8.260;2022-08-21T08:54:45;26.10;15.00
32895;DHT22;19251;49.484;8.260;2022-08-21T08:59:53;26.30;13.60
32895;DHT22;19251;49.484;8.260;2022-08-21T09:04:58;26.50;13.80
32895;DHT22;19251;49.484;8.260;2022-08-21T09:10:08;26.70;13.60
32895;DHT22;19251;49.484;8.260;2022-08-21T09:15:53;26.90;13.20
32895;DHT22;19251;49.484;8.260;2022-08-21T09:21:24;27.10;12.90
32895;DHT22;19251;49.484;8.260;2022-08-21T09:27:07;27.20;11.70
32895;DHT22;19251;49.484;8.260;2022-08-21T09:32:03;27.30;11.20
32895;DHT22;19251;49.484;8.260;2022-08-21T09:37:18;27.50;11.60
32895;DHT22;19251;49.484;8.260;2022-08-21T09:42:29;27.70;11.10
32895;DHT22;19251;49.484;8.260;2022-08-21T09:47:34;27.90;10.50
32895;DHT22;19251;49.484;8.260;2022-08-21T09:52:41;28.00;9.70
32895;DHT22;19251;49.484;8.260;2022-08-21T09:57:45;28.10;9.90
32895;DHT22;19251;49.484;8.260;2022-08-21T10:02:51;28.20;9.80
32895;DHT22;19251;49.484;8.260;2022-08-21T10:07:54;28.40;9.70
32895;DHT22;19251;49.484;8.260;2022-08-21T10:13:18;28.60;8.70
32895;DHT22;19251;49.484;8.260;2022-08-21T10:18:49;28.80;8.70
32895;DHT22;19251;49.484;8.260;2022-08-21T10:29:02;29.20;7.60
32895;DHT22;19251;49.484;8.260;2022-08-21T10:45:08;30.00;6.10
32895;DHT22;19251;49.484;8.260;2022-08-21T10:50:39;30.10;6.20
32895;DHT22;19251;49.484;8.260;2022-08-21T10:55:52;30.30;5.10
32895;DHT22;19251;49.484;8.260;2022-08-21T11:06:27;30.50;5.10
32895;DHT22;19251;49.484;8.260;2022-08-21T11:11:56;30.50;3.80
32895;DHT22;19251;49.484;8.260;2022-08-21T11:17:14;30.20;2.90
32895;DHT22;19251;49.484;8.260;2022-08-21T11:22:53;30.40;3.60
32895;DHT22;19251;49.484;8.260;2022-08-21T11:28:23;30.50;3.60
32895;DHT22;19251;49.484;8.260;2022-08-21T11:39:06;30.90;2.70
32895;DHT22;19251;49.484;8.260;2022-08-21T11:44:29;31.00;2.80
32895;DHT22;19251;49.484;8.260;2022-08-21T11:55:12;31.60;2.50
32895;DHT22;19251;49.484;8.260;2022-08-21T12:00:26;32.00;2.30
32895;DHT22;19251;49.484;8.260;2022-08-21T12:05:42;32.30;1.30
32895;DHT22;19251;49.484;8.260;2022-08-21T12:10:58;32.70;1.00
32895;DHT22;19251;49.484;8.260;2022-08-21T12:16:24;32.80;1.00
32895;DHT22;19251;49.484;8.260;2022-08-21T12:21:29;33.00;1.00
32895;DHT22;19251;49.484;8.260;2022-08-21T12:26:35;33.20;1.00
32895;DHT22;19251;49.484;8.260;2022-08-21T12:31:53;33.50;1.00
32895;DHT22;19251;49.484;8.260;2022-08-21T12:37:09;33.80;1.00
32895;DHT22;19251;49.484;8.260;2022-08-21T12:42:39;34.10;1.00
32895;DHT22;19251;49.484;8.260;2022-08-21T12:53:09;34.70;1.00
32895;DHT22;19251;49.484;8.260;2022-08-21T12:58:24;34.80;1.00
32895;DHT22;19251;49.484;8.260;2022-08-21T13:03:26;34.90;1.00
32895;DHT22;19251;49.484;8.260;2022-08-21T13:08:29;35.00;1.00
32895;DHT22;19251;49.484;8.260;2022-08-21T13:13:33;35.20;1.00
32895;DHT22;19251;49.484;8.260;2022-08-21T13:18:51;35.40;1.00
32895;DHT22;19251;49.484;8.260;2022-08-21T13:24:08;35.60;1.00
32895;DHT22;19251;49.484;8.260;2022-08-21T13:29:33;35.90;1.00
32895;DHT22;19251;49.484;8.260;2022-08-21T13:34:39;36.30;1.00
32895;DHT22;19251;49.484;8.260;2022-08-21T13:39:51;36.70;1.00
32895;DHT22;19251;49.484;8.260;2022-08-21T13:44:54;37.10;1.00
32895;DHT22;19251;49.484;8.260;2022-08-21T13:49:57;37.60;1.00
32895;DHT22;19251;49.484;8.260;2022-08-21T13:55:08;37.90;1.00
32895;DHT22;19251;49.484;8.260;2022-08-21T14:00:27;38.10;1.00
32895;DHT22;19251;49.484;8.260;2022-08-21T14:05:32;38.30;1.00
32895;DHT22;19251;49.484;8.260;2022-08-21T14:10:40;38.50;1.00
32895;DHT22;19251;49.484;8.260;2022-08-21T14:15:43;38.90;1.00
32895;DHT22;19251;49.484;8.260;2022-08-21T14:21:12;39.30;1.00
32895;DHT22;19251;49.484;8.260;2022-08-21T14:26:17;39.60;1.00
32895;DHT22;19251;49.484;8.260;2022-08-21T14:31:20;40.00;1.00
32895;DHT22;19251;49.484;8.260;2022-08-21T14:36:23;40.50;1.00
32895;DHT22;19251;49.484;8.260;2022-08-21T14:41:27;40.90;1.00
32895;DHT22;19251;49.484;8.260;2022-08-21T14:46:31;41.10;1.00
32895;DHT22;19251;49.484;8.260;2022-08-21T14:51:34;41.20;1.00
32895;DHT22;19251;49.484;8.260;2022-08-21T14:56:36;41.50;1.00
32895;DHT22;19251;49.484;8.260;2022-08-21T15:01:44;42.10;1.00
32895;DHT22;19251;49.484;8.260;2022-08-21T15:06:47;42.60;1.00
32895;DHT22;19251;49.484;8.260;2022-08-21T15:11:49;43.20;1.00
32895;DHT22;19251;49.484;8.260;2022-08-21T15:16:52;43.70;1.00
32895;DHT22;19251;49.484;8.260;2022-08-21T15:21:54;44.10;1.00
32895;DHT22;19251;49.484;8.260;2022-08-21T15:27:00;44.40;1.00
32895;DHT22;19251;49.484;8.260;2022-08-21T15:37:21;45.30;1.00
32895;DHT22;19251;49.484;8.260;2022-08-21T15:42:25;45.60;1.00
32895;DHT22;19251;49.484;8.260;2022-08-21T15:47:33;45.80;1.00
32895;DHT22;19251;49.484;8.260;2022-08-21T15:52:36;46.10;1.00
32895;DHT22;19251;49.484;8.260;2022-08-21T15:57:44;46.40;1.00
32895;DHT22;19251;49.484;8.260;2022-08-21T16:02:59;46.50;1.00
32895;DHT22;19251;49.484;8.260;2022-08-21T16:08:02;46.60;1.00
32895;DHT22;19251;49.484;8.260;2022-08-21T16:13:07;46.80;1.00
32895;DHT22;19251;49.484;8.260;2022-08-21T16:18:13;47.00;1.00
32895;DHT22;19251;49.484;8.260;2022-08-21T16:23:15;47.00;1.00
32895;DHT22;19251;49.484;8.260;2022-08-21T16:28:18;46.90;1.00
32895;DHT22;19251;49.484;8.260;2022-08-21T16:33:24;46.20;1.00
32895;DHT22;19251;49.484;8.260;2022-08-21T16:38:28;45.00;1.00
32895;DHT22;19251;49.484;8.260;2022-08-21T16:43:31;43.40;1.00
32895;DHT22;19251;49.484;8.260;2022-08-21T16:48:33;41.70;1.00
32895;DHT22;19251;49.484;8.260;2022-08-21T16:53:36;40.10;1.00
32895;DHT22;19251;49.484;8.260;2022-08-21T16:58:42;38.70;1.00
32895;DHT22;19251;49.484;8.260;2022-08-21T17:03:48;37.60;1.00
32895;DHT22;19251;49.484;8.260;2022-08-21T17:08:58;36.50;1.00
32895;DHT22;19251;49.484;8.260;2022-08-21T17:14:02;35.70;1.00
32895;DHT22;19251;49.484;8.260;2022-08-21T17:19:07;35.00;1.00
32895;DHT22;19251;49.484;8.260;2022-08-21T17:24:09;34.40;1.00
32895;DHT22;19251;49.484;8.260;2022-08-21T17:29:14;33.80;1.00
32895;DHT22;19251;49.484;8.260;2022-08-21T17:34:17;33.20;1.00
32895;DHT22;19251;49.484;8.260;2022-08-21T17:39:19;32.70;1.00
32895;DHT22;19251;49.484;8.260;2022-08-21T17:44:27;32.30;1.00
32895;DHT22;19251;49.484;8.260;2022-08-21T17:49:30;31.80;1.00
32895;DHT22;19251;49.484;8.260;2022-08-21T17:54:34;31.30;1.00
32895;DHT22;19251;49.484;8.260;2022-08-21T17:59:36;30.90;1.00
32895;DHT22;19251;49.484;8.260;2022-08-21T18:04:39;30.50;1.00
32895;DHT22;19251;49.484;8.260;2022-08-21T18:09:42;30.10;1.00
32895;DHT22;19251;49.484;8.260;2022-08-21T18:14:45;29.80;1.00
32895;DHT22;19251;49.484;8.260;2022-08-21T18:19:47;29.60;1.00
32895;DHT22;19251;49.484;8.260;2022-08-21T18:24:50;29.30;1.00
32895;DHT22;19251;49.484;8.260;2022-08-21T18:29:55;28.90;1.00
32895;DHT22;19251;49.484;8.260;2022-08-21T18:35:01;28.60;1.40
32895;DHT22;19251;49.484;8.260;2022-08-21T18:40:06;28.30;1.90
32895;DHT22;19251;49.484;8.260;2022-08-21T18:45:14;28.00;2.40
32895;DHT22;19251;49.484;8.260;2022-08-21T18:50:20;27.80;2.90
32895;DHT22;19251;49.484;8.260;2022-08-21T18:55:27;27.50;3.40
32895;DHT22;19251;49.484;8.260;2022-08-21T19:00:39;27.30;3.80
32895;DHT22;19251;49.484;8.260;2022-08-21T19:05:47;27.10;4.40
32895;DHT22;19251;49.484;8.260;2022-08-21T19:10:50;26.80;4.80
32895;DHT22;19251;49.484;8.260;2022-08-21T19:15:56;26.60;5.30
32895;DHT22;19251;49.484;8.260;2022-08-21T19:21:01;26.40;5.90
32895;DHT22;19251;49.484;8.260;2022-08-21T19:26:06;26.10;6.40
32895;DHT22;19251;49.484;8.260;2022-08-21T19:31:15;25.90;7.10
32895;DHT22;19251;49.484;8.260;2022-08-21T19:36:21;25.60;7.60
32895;DHT22;19251;49.484;8.260;2022-08-21T19:41:27;25.50;8.60
32895;DHT22;19251;49.484;8.260;2022-08-21T19:46:37;25.10;8.10
32895;DHT22;19251;49.484;8.260;2022-08-21T19:51:42;25.10;8.50
32895;DHT22;19251;49.484;8.260;2022-08-21T19:56:45;25.10;8.90
32895;DHT22;19251;49.484;8.260;2022-08-21T20:01:48;25.10;8.10
32895;DHT22;19251;49.484;8.260;2022-08-21T20:06:51;24.80;9.60
32895;DHT22;19251;49.484;8.260;2022-08-21T20:11:54;24.60;9.90
32895;DHT22;19251;49.484;8.260;2022-08-21T20:17:04;24.20;9.40
32895;DHT22;19251;49.484;8.260;2022-08-21T20:22:06;24.30;10.60
32895;DHT22;19251;49.484;8.260;2022-08-21T20:27:15;24.20;11.00
32895;DHT22;19251;49.484;8.260;2022-08-21T20:32:21;24.00;11.80
32895;DHT22;19251;49.484;8.260;2022-08-21T20:37:23;23.90;11.70
32895;DHT22;19251;49.484;8.260;2022-08-21T20:42:49;23.60;11.60
32895;DHT22;19251;49.484;8.260;2022-08-21T20:48:01;23.70;11.60
32895;DHT22;19251;49.484;8.260;2022-08-21T20:53:13;23.50;12.10
32895;DHT22;19251;49.484;8.260;2022-08-21T20:58:37;23.30;12.30
32895;DHT22;19251;49.484;8.260;2022-08-21T21:03:51;23.30;12.80
32895;DHT22;19251;49.484;8.260;2022-08-21T21:09:06;23.40;13.20
32895;DHT22;19251;49.484;8.260;2022-08-21T21:14:17;23.00;13.30
32895;DHT22;19251;49.484;8.260;2022-08-21T21:19:42;23.00;14.00
32895;DHT22;19251;49.484;8.260;2022-08-21T21:24:51;22.90;13.70
32895;DHT22;19251;49.484;8.260;2022-08-21T21:30:09;22.90;13.80
32895;DHT22;19251;49.484;8.260;2022-08-21T21:35:17;22.80;14.00
32895;DHT22;19251;49.484;8.260;2022-08-21T21:40:55;22.70;13.80
32895;DHT22;19251;49.484;8.260;2022-08-21T21:46:43;22.70;13.70
32895;DHT22;19251;49.484;8.260;2022-08-21T21:52:25;22.80;13.80
32895;DHT22;19251;49.484;8.260;2022-08-21T21:57:57;22.60;13.70
32895;DHT22;19251;49.484;8.260;2022-08-21T22:14:15;21.90;14.00
32895;DHT22;19251;49.484;8.260;2022-08-21T22:19:28;22.10;14.40
32895;DHT22;19251;49.484;8.260;2022-08-21T22:24:34;22.00;14.80
32895;DHT22;19251;49.484;8.260;2022-08-21T22:29:52;21.80;14.90
32895;DHT22;19251;49.484;8.260;2022-08-21T22:45:32;21.50;15.30
32895;DHT22;19251;49.484;8.260;2022-08-21T22:50:45;21.50;15.50
32895;DHT22;19251;49.484;8.260;2022-08-21T22:55:57;21.50;15.60
32895;DHT22;19251;49.484;8.260;2022-08-21T23:01:05;21.40;15.70
32895;DHT22;19251;49.484;8.260;2022-08-21T23:11:38;21.30;15.80
32895;DHT22;19251;49.484;8.260;2022-08-21T23:16:54;21.20;16.00
32895;DHT22;19251;49.484;8.260;2022-08-21T23:33:59;21.10;16.10
